Terminal Aerodrome Forecast
Issued by NWS Jackson, MS

Home | Current Version | Previous Version | Text Only | Print | Product List | Glossary On
Versions: 1 2 3 4 5 6 7 8 9 10 11 12 13 14 15 16
000
FTUS44 KJAN 261127 CCA
TAFGLH
TAF COR
KGLH 261127Z 2611/2712 00000KT 2SM BR SKC
     FM261330 35011KT P6SM FEW025
     FM270000 02009KT P6SM FEW050 SCT120 BKN200=

USA.gov is the U.S. government's official web portal to all federal, state and local government web resources and services.